sensor_id;sensor_type;location;lat;lon;timestamp;temperature;humidity
3564;DHT22;1796;52.388;13.096;2022-10-13T00:00:14;3.50;99.90
3564;DHT22;1796;52.388;13.096;2022-10-13T00:02:41;3.50;99.90
3564;DHT22;1796;52.388;13.096;2022-10-13T00:05:08;3.40;99.90
3564;DHT22;1796;52.388;13.096;2022-10-13T00:07:35;3.40;99.90
3564;DHT22;1796;52.388;13.096;2022-10-13T00:10:03;3.40;99.90
3564;DHT22;1796;52.388;13.096;2022-10-13T00:12:33;3.40;99.90
3564;DHT22;1796;52.388;13.096;2022-10-13T00:15:00;3.40;99.90
3564;DHT22;1796;52.388;13.096;2022-10-13T00:17:27;3.30;99.90
3564;DHT22;1796;52.388;13.096;2022-10-13T00:19:54;3.30;99.90
3564;DHT22;1796;52.388;13.096;2022-10-13T00:22:20;3.30;99.90
3564;DHT22;1796;52.388;13.096;2022-10-13T00:24:49;3.30;99.90
3564;DHT22;1796;52.388;13.096;2022-10-13T00:27:16;3.30;99.90
3564;DHT22;1796;52.388;13.096;2022-10-13T00:29:45;3.20;99.90
3564;DHT22;1796;52.388;13.096;2022-10-13T00:32:12;3.20;99.90
3564;DHT22;1796;52.388;13.096;2022-10-13T00:34:38;3.20;99.90
3564;DHT22;1796;52.388;13.096;2022-10-13T00:37:05;3.10;99.90
3564;DHT22;1796;52.388;13.096;2022-10-13T00:39:32;3.10;99.90
3564;DHT22;1796;52.388;13.096;2022-10-13T00:42:00;3.10;99.90
3564;DHT22;1796;52.388;13.096;2022-10-13T00:45:00;3.10;99.90
3564;DHT22;1796;52.388;13.096;2022-10-13T00:47:31;3.10;99.90
3564;DHT22;1796;52.388;13.096;2022-10-13T00:49:59;3.10;99.90
3564;DHT22;1796;52.388;13.096;2022-10-13T00:52:27;3.10;99.90
3564;DHT22;1796;52.388;13.096;2022-10-13T00:54:56;3.10;99.90
3564;DHT22;1796;52.388;13.096;2022-10-13T00:57:23;3.20;99.90
3564;DHT22;1796;52.388;13.096;2022-10-13T00:59:51;3.10;99.90
3564;DHT22;1796;52.388;13.096;2022-10-13T01:02:19;3.20;99.90
3564;DHT22;1796;52.388;13.096;2022-10-13T01:04:47;3.20;99.90
3564;DHT22;1796;52.388;13.096;2022-10-13T01:07:15;3.10;99.90
3564;DHT22;1796;52.388;13.096;2022-10-13T01:09:44;3.10;99.90
3564;DHT22;1796;52.388;13.096;2022-10-13T01:12:22;3.00;99.90
3564;DHT22;1796;52.388;13.096;2022-10-13T01:14:56;3.10;99.90
3564;DHT22;1796;52.388;13.096;2022-10-13T01:17:32;3.10;99.90
3564;DHT22;1796;52.388;13.096;2022-10-13T01:20:31;3.20;99.90
3564;DHT22;1796;52.388;13.096;2022-10-13T01:23:17;3.20;99.90
3564;DHT22;1796;52.388;13.096;2022-10-13T01:26:08;3.30;99.90
3564;DHT22;1796;52.388;13.096;2022-10-13T01:28:52;3.40;99.90
3564;DHT22;1796;52.388;13.096;2022-10-13T01:31:28;3.60;99.90
3564;DHT22;1796;52.388;13.096;2022-10-13T01:34:06;3.70;99.90
3564;DHT22;1796;52.388;13.096;2022-10-13T01:36:38;3.80;99.90
3564;DHT22;1796;52.388;13.096;2022-10-13T01:39:13;3.90;99.90
3564;DHT22;1796;52.388;13.096;2022-10-13T01:41:48;4.00;99.90
3564;DHT22;1796;52.388;13.096;2022-10-13T01:44:21;4.10;99.90
3564;DHT22;1796;52.388;13.096;2022-10-13T01:46:52;4.10;99.90
3564;DHT22;1796;52.388;13.096;2022-10-13T01:49:23;4.10;99.90
3564;DHT22;1796;52.388;13.096;2022-10-13T01:51:52;4.10;99.90
3564;DHT22;1796;52.388;13.096;2022-10-13T01:54:20;4.10;99.90
3564;DHT22;1796;52.388;13.096;2022-10-13T01:56:51;4.10;99.90
3564;DHT22;1796;52.388;13.096;2022-10-13T01:59:19;4.10;99.90
3564;DHT22;1796;52.388;13.096;2022-10-13T02:01:58;4.10;99.90
3564;DHT22;1796;52.388;13.096;2022-10-13T02:04:35;4.10;99.90
3564;DHT22;1796;52.388;13.096;2022-10-13T02:07:08;4.10;99.90
3564;DHT22;1796;52.388;13.096;2022-10-13T02:09:44;4.00;99.90
3564;DHT22;1796;52.388;13.096;2022-10-13T02:12:17;3.90;99.90
3564;DHT22;1796;52.388;13.096;2022-10-13T02:14:47;3.90;99.90
3564;DHT22;1796;52.388;13.096;2022-10-13T02:17:16;3.80;99.90
3564;DHT22;1796;52.388;13.096;2022-10-13T02:19:43;3.90;99.90
3564;DHT22;1796;52.388;13.096;2022-10-13T02:22:12;3.80;99.90
3564;DHT22;1796;52.388;13.096;2022-10-13T02:24:40;3.80;99.90
3564;DHT22;1796;52.388;13.096;2022-10-13T02:27:07;3.70;99.90
3564;DHT22;1796;52.388;13.096;2022-10-13T02:29:47;3.70;99.90
3564;DHT22;1796;52.388;13.096;2022-10-13T02:32:16;3.80;99.90
3564;DHT22;1796;52.388;13.096;2022-10-13T02:34:42;3.70;99.90
3564;DHT22;1796;52.388;13.096;2022-10-13T02:37:09;3.60;99.90
3564;DHT22;1796;52.388;13.096;2022-10-13T02:39:37;3.60;99.90
3564;DHT22;1796;52.388;13.096;2022-10-13T02:42:04;3.50;99.90
3564;DHT22;1796;52.388;13.096;2022-10-13T02:44:31;3.40;99.90
3564;DHT22;1796;52.388;13.096;2022-10-13T02:46:58;3.30;99.90
3564;DHT22;1796;52.388;13.096;2022-10-13T02:49:26;3.30;99.90
3564;DHT22;1796;52.388;13.096;2022-10-13T02:51:53;3.30;99.90
3564;DHT22;1796;52.388;13.096;2022-10-13T02:54:20;3.30;99.90
3564;DHT22;1796;52.388;13.096;2022-10-13T02:56:46;3.30;99.90
3564;DHT22;1796;52.388;13.096;2022-10-13T02:59:13;3.20;99.90
3564;DHT22;1796;52.388;13.096;2022-10-13T03:01:40;3.20;99.90
3564;DHT22;1796;52.388;13.096;2022-10-13T03:04:09;3.20;99.90
3564;DHT22;1796;52.388;13.096;2022-10-13T03:06:38;3.20;99.90
3564;DHT22;1796;52.388;13.096;2022-10-13T03:09:05;3.20;99.90
3564;DHT22;1796;52.388;13.096;2022-10-13T03:11:31;3.20;99.90
3564;DHT22;1796;52.388;13.096;2022-10-13T03:13:58;3.10;99.90
3564;DHT22;1796;52.388;13.096;2022-10-13T03:16:25;3.10;99.90
3564;DHT22;1796;52.388;13.096;2022-10-13T03:18:52;3.10;99.90
3564;DHT22;1796;52.388;13.096;2022-10-13T03:21:19;3.10;99.90
3564;DHT22;1796;52.388;13.096;2022-10-13T03:23:47;3.20;99.90
3564;DHT22;1796;52.388;13.096;2022-10-13T03:26:14;3.30;99.90
3564;DHT22;1796;52.388;13.096;2022-10-13T03:28:41;3.30;99.90
3564;DHT22;1796;52.388;13.096;2022-10-13T03:31:10;3.30;99.90
3564;DHT22;1796;52.388;13.096;2022-10-13T03:33:38;3.40;99.90
3564;DHT22;1796;52.388;13.096;2022-10-13T03:36:05;3.50;99.90
3564;DHT22;1796;52.388;13.096;2022-10-13T03:38:34;3.60;99.90
3564;DHT22;1796;52.388;13.096;2022-10-13T03:41:05;3.60;99.90
3564;DHT22;1796;52.388;13.096;2022-10-13T03:43:32;3.60;99.90
3564;DHT22;1796;52.388;13.096;2022-10-13T03:46:00;3.70;99.90
3564;DHT22;1796;52.388;13.096;2022-10-13T03:48:27;3.70;99.90
3564;DHT22;1796;52.388;13.096;2022-10-13T03:50:55;3.60;99.90
3564;DHT22;1796;52.388;13.096;2022-10-13T03:53:23;3.70;99.90
3564;DHT22;1796;52.388;13.096;2022-10-13T03:55:50;3.80;99.90
3564;DHT22;1796;52.388;13.096;2022-10-13T03:58:19;3.90;99.90
3564;DHT22;1796;52.388;13.096;2022-10-13T04:00:46;4.00;99.90
3564;DHT22;1796;52.388;13.096;2022-10-13T04:03:14;4.00;99.90
3564;DHT22;1796;52.388;13.096;2022-10-13T04:05:41;4.10;99.90
3564;DHT22;1796;52.388;13.096;2022-10-13T04:08:09;4.10;99.90
3564;DHT22;1796;52.388;13.096;2022-10-13T04:10:36;4.10;99.90
3564;DHT22;1796;52.388;13.096;2022-10-13T04:13:02;4.10;99.90
3564;DHT22;1796;52.388;13.096;2022-10-13T04:15:35;4.20;99.90
3564;DHT22;1796;52.388;13.096;2022-10-13T04:18:02;4.20;99.90
3564;DHT22;1796;52.388;13.096;2022-10-13T04:20:29;4.30;99.90
3564;DHT22;1796;52.388;13.096;2022-10-13T04:22:56;4.30;99.90
3564;DHT22;1796;52.388;13.096;2022-10-13T04:25:22;4.20;99.90
3564;DHT22;1796;52.388;13.096;2022-10-13T04:27:49;4.20;99.90
3564;DHT22;1796;52.388;13.096;2022-10-13T04:30:16;4.20;99.90
3564;DHT22;1796;52.388;13.096;2022-10-13T04:32:44;4.30;99.90
3564;DHT22;1796;52.388;13.096;2022-10-13T04:35:11;4.30;99.90
3564;DHT22;1796;52.388;13.096;2022-10-13T04:37:38;4.30;99.90
3564;DHT22;1796;52.388;13.096;2022-10-13T04:40:05;4.30;99.90
3564;DHT22;1796;52.388;13.096;2022-10-13T04:42:33;4.30;99.90
3564;DHT22;1796;52.388;13.096;2022-10-13T04:45:00;4.30;99.90
3564;DHT22;1796;52.388;13.096;2022-10-13T04:47:26;4.30;99.90
3564;DHT22;1796;52.388;13.096;2022-10-13T04:49:54;4.40;99.90
3564;DHT22;1796;52.388;13.096;2022-10-13T04:52:21;4.40;99.90
3564;DHT22;1796;52.388;13.096;2022-10-13T04:54:48;4.40;99.90
3564;DHT22;1796;52.388;13.096;2022-10-13T04:57:15;4.40;99.90
3564;DHT22;1796;52.388;13.096;2022-10-13T04:59:42;4.50;99.90
3564;DHT22;1796;52.388;13.096;2022-10-13T05:02:09;4.60;99.90
3564;DHT22;1796;52.388;13.096;2022-10-13T05:04:35;4.60;99.90
3564;DHT22;1796;52.388;13.096;2022-10-13T05:07:04;4.60;99.90
3564;DHT22;1796;52.388;13.096;2022-10-13T05:09:31;4.60;99.90
3564;DHT22;1796;52.388;13.096;2022-10-13T05:11:58;4.60;99.90
3564;DHT22;1796;52.388;13.096;2022-10-13T05:14:25;4.70;99.90
3564;DHT22;1796;52.388;13.096;2022-10-13T05:16:51;4.70;99.90
3564;DHT22;1796;52.388;13.096;2022-10-13T05:19:18;4.70;99.90
3564;DHT22;1796;52.388;13.096;2022-10-13T05:21:45;4.70;99.90
3564;DHT22;1796;52.388;13.096;2022-10-13T05:24:14;4.70;99.90
3564;DHT22;1796;52.388;13.096;2022-10-13T05:26:41;4.80;99.90
3564;DHT22;1796;52.388;13.096;2022-10-13T05:29:07;4.80;99.90
3564;DHT22;1796;52.388;13.096;2022-10-13T05:31:35;4.70;99.90
3564;DHT22;1796;52.388;13.096;2022-10-13T05:34:02;4.70;99.90
3564;DHT22;1796;52.388;13.096;2022-10-13T05:36:31;4.70;99.90
3564;DHT22;1796;52.388;13.096;2022-10-13T05:39:00;4.60;99.90
3564;DHT22;1796;52.388;13.096;2022-10-13T05:41:29;4.70;99.90
3564;DHT22;1796;52.388;13.096;2022-10-13T05:43:58;4.60;99.90
3564;DHT22;1796;52.388;13.096;2022-10-13T05:46:25;4.70;99.90
3564;DHT22;1796;52.388;13.096;2022-10-13T05:48:52;4.70;99.90
3564;DHT22;1796;52.388;13.096;2022-10-13T05:51:22;4.70;99.90
3564;DHT22;1796;52.388;13.096;2022-10-13T05:53:53;4.70;99.90
3564;DHT22;1796;52.388;13.096;2022-10-13T05:56:23;4.70;99.90
3564;DHT22;1796;52.388;13.096;2022-10-13T05:58:57;4.70;99.90
3564;DHT22;1796;52.388;13.096;2022-10-13T06:01:26;4.70;99.90
3564;DHT22;1796;52.388;13.096;2022-10-13T06:03:58;4.70;99.90
3564;DHT22;1796;52.388;13.096;2022-10-13T06:06:27;4.70;99.90
3564;DHT22;1796;52.388;13.096;2022-10-13T06:08:54;4.70;99.90
3564;DHT22;1796;52.388;13.096;2022-10-13T06:11:20;4.70;99.90
3564;DHT22;1796;52.388;13.096;2022-10-13T06:13:47;4.70;99.90
3564;DHT22;1796;52.388;13.096;2022-10-13T06:16:15;4.80;99.90
3564;DHT22;1796;52.388;13.096;2022-10-13T06:18:42;4.90;99.90
3564;DHT22;1796;52.388;13.096;2022-10-13T06:21:09;5.00;99.90
3564;DHT22;1796;52.388;13.096;2022-10-13T06:23:36;5.10;99.90
3564;DHT22;1796;52.388;13.096;2022-10-13T06:26:03;5.20;99.90
3564;DHT22;1796;52.388;13.096;2022-10-13T06:28:32;5.40;99.90
3564;DHT22;1796;52.388;13.096;2022-10-13T06:30:59;5.40;99.90
3564;DHT22;1796;52.388;13.096;2022-10-13T06:33:27;5.50;99.90
3564;DHT22;1796;52.388;13.096;2022-10-13T06:35:54;5.60;99.90
3564;DHT22;1796;52.388;13.096;2022-10-13T06:38:20;5.70;99.90
3564;DHT22;1796;52.388;13.096;2022-10-13T06:40:47;5.80;99.90
3564;DHT22;1796;52.388;13.096;2022-10-13T06:43:14;5.90;99.90
3564;DHT22;1796;52.388;13.096;2022-10-13T06:45:41;6.00;99.90
3564;DHT22;1796;52.388;13.096;2022-10-13T06:48:08;6.10;99.90
3564;DHT22;1796;52.388;13.096;2022-10-13T06:50:36;6.10;99.90
3564;DHT22;1796;52.388;13.096;2022-10-13T06:53:03;6.20;99.90
3564;DHT22;1796;52.388;13.096;2022-10-13T06:55:29;6.30;99.90
3564;DHT22;1796;52.388;13.096;2022-10-13T06:57:56;6.40;99.90
3564;DHT22;1796;52.388;13.096;2022-10-13T07:00:23;6.50;99.90
3564;DHT22;1796;52.388;13.096;2022-10-13T07:02:50;6.60;99.90
3564;DHT22;1796;52.388;13.096;2022-10-13T07:05:17;6.70;99.90
3564;DHT22;1796;52.388;13.096;2022-10-13T07:07:45;6.70;99.90
3564;DHT22;1796;52.388;13.096;2022-10-13T07:10:12;6.70;99.90
3564;DHT22;1796;52.388;13.096;2022-10-13T07:12:39;6.90;99.90
3564;DHT22;1796;52.388;13.096;2022-10-13T07:15:07;7.10;99.90
3564;DHT22;1796;52.388;13.096;2022-10-13T07:17:34;7.10;99.90
3564;DHT22;1796;52.388;13.096;2022-10-13T07:20:01;7.10;99.90
3564;DHT22;1796;52.388;13.096;2022-10-13T07:22:29;7.20;99.90
3564;DHT22;1796;52.388;13.096;2022-10-13T07:24:57;7.40;99.90
3564;DHT22;1796;52.388;13.096;2022-10-13T07:27:24;7.60;99.90
3564;DHT22;1796;52.388;13.096;2022-10-13T07:29:51;7.60;99.90
3564;DHT22;1796;52.388;13.096;2022-10-13T07:32:18;7.80;99.90
3564;DHT22;1796;52.388;13.096;2022-10-13T07:34:45;8.00;99.90
3564;DHT22;1796;52.388;13.096;2022-10-13T07:37:12;8.30;99.90
3564;DHT22;1796;52.388;13.096;2022-10-13T07:39:38;8.50;99.90
3564;DHT22;1796;52.388;13.096;2022-10-13T07:42:07;8.90;99.90
3564;DHT22;1796;52.388;13.096;2022-10-13T07:44:33;9.10;99.90
3564;DHT22;1796;52.388;13.096;2022-10-13T07:47:00;9.40;99.90
3564;DHT22;1796;52.388;13.096;2022-10-13T07:49:27;9.70;99.90
3564;DHT22;1796;52.388;13.096;2022-10-13T07:51:54;9.80;99.90
3564;DHT22;1796;52.388;13.096;2022-10-13T07:54:21;10.00;99.90
3564;DHT22;1796;52.388;13.096;2022-10-13T07:56:50;10.10;99.90
3564;DHT22;1796;52.388;13.096;2022-10-13T07:59:18;10.20;99.90
3564;DHT22;1796;52.388;13.096;2022-10-13T08:01:45;10.50;99.90
3564;DHT22;1796;52.388;13.096;2022-10-13T08:04:12;10.90;99.90
3564;DHT22;1796;52.388;13.096;2022-10-13T08:06:39;11.00;99.90
3564;DHT22;1796;52.388;13.096;2022-10-13T08:09:06;11.10;99.90
3564;DHT22;1796;52.388;13.096;2022-10-13T08:11:33;11.10;99.90
3564;DHT22;1796;52.388;13.096;2022-10-13T08:14:00;11.00;99.90
3564;DHT22;1796;52.388;13.096;2022-10-13T08:16:30;11.00;99.90
3564;DHT22;1796;52.388;13.096;2022-10-13T08:18:57;11.10;99.90
3564;DHT22;1796;52.388;13.096;2022-10-13T08:21:26;11.00;99.90
3564;DHT22;1796;52.388;13.096;2022-10-13T08:23:53;11.10;99.90
3564;DHT22;1796;52.388;13.096;2022-10-13T08:26:22;11.20;99.90
3564;DHT22;1796;52.388;13.096;2022-10-13T08:28:50;11.50;99.90
3564;DHT22;1796;52.388;13.096;2022-10-13T08:31:17;12.00;99.90
3564;DHT22;1796;52.388;13.096;2022-10-13T08:33:45;12.30;99.90
3564;DHT22;1796;52.388;13.096;2022-10-13T08:36:12;12.60;99.90
3564;DHT22;1796;52.388;13.096;2022-10-13T08:38:40;12.80;99.90
3564;DHT22;1796;52.388;13.096;2022-10-13T08:41:14;12.90;99.90
3564;DHT22;1796;52.388;13.096;2022-10-13T08:43:45;13.00;99.90
3564;DHT22;1796;52.388;13.096;2022-10-13T08:46:18;12.90;99.90
3564;DHT22;1796;52.388;13.096;2022-10-13T08:48:49;13.00;99.90
3564;DHT22;1796;52.388;13.096;2022-10-13T08:51:15;12.90;99.90
3564;DHT22;1796;52.388;13.096;2022-10-13T08:53:43;12.90;99.90
3564;DHT22;1796;52.388;13.096;2022-10-13T08:56:16;12.80;99.90
3564;DHT22;1796;52.388;13.096;2022-10-13T08:58:44;12.90;99.90
3564;DHT22;1796;52.388;13.096;2022-10-13T09:01:13;12.90;99.90
3564;DHT22;1796;52.388;13.096;2022-10-13T09:03:49;13.10;99.90
3564;DHT22;1796;52.388;13.096;2022-10-13T09:06:20;13.30;99.90
3564;DHT22;1796;52.388;13.096;2022-10-13T09:08:54;13.50;99.90
3564;DHT22;1796;52.388;13.096;2022-10-13T09:11:22;13.50;99.90
3564;DHT22;1796;52.388;13.096;2022-10-13T09:13:54;13.50;99.90
3564;DHT22;1796;52.388;13.096;2022-10-13T09:16:26;13.80;99.90
3564;DHT22;1796;52.388;13.096;2022-10-13T09:19:16;13.90;99.90
3564;DHT22;1796;52.388;13.096;2022-10-13T09:21:45;14.00;99.90
3564;DHT22;1796;52.388;13.096;2022-10-13T09:24:14;14.20;99.90
3564;DHT22;1796;52.388;13.096;2022-10-13T09:26:42;14.50;99.90
3564;DHT22;1796;52.388;13.096;2022-10-13T09:29:11;14.70;99.90
3564;DHT22;1796;52.388;13.096;2022-10-13T09:31:41;14.80;99.90
3564;DHT22;1796;52.388;13.096;2022-10-13T09:34:15;14.90;99.90
3564;DHT22;1796;52.388;13.096;2022-10-13T09:36:58;15.00;99.90
3564;DHT22;1796;52.388;13.096;2022-10-13T09:39:26;15.00;99.90
3564;DHT22;1796;52.388;13.096;2022-10-13T09:42:16;15.00;99.90
3564;DHT22;1796;52.388;13.096;2022-10-13T09:44:44;15.20;99.90
3564;DHT22;1796;52.388;13.096;2022-10-13T09:47:17;15.30;99.90
3564;DHT22;1796;52.388;13.096;2022-10-13T09:49:58;15.60;99.90
3564;DHT22;1796;52.388;13.096;2022-10-13T09:52:26;15.80;99.90
3564;DHT22;1796;52.388;13.096;2022-10-13T09:54:56;15.90;99.90
3564;DHT22;1796;52.388;13.096;2022-10-13T09:57:34;16.00;99.90
3564;DHT22;1796;52.388;13.096;2022-10-13T10:00:12;16.30;99.90
3564;DHT22;1796;52.388;13.096;2022-10-13T10:02:46;16.50;99.90
3564;DHT22;1796;52.388;13.096;2022-10-13T10:05:22;16.60;99.90
3564;DHT22;1796;52.388;13.096;2022-10-13T10:07:50;16.70;99.90
3564;DHT22;1796;52.388;13.096;2022-10-13T10:10:26;16.60;99.90
3564;DHT22;1796;52.388;13.096;2022-10-13T10:12:55;16.80;99.90
3564;DHT22;1796;52.388;13.096;2022-10-13T10:15:25;16.80;99.90
3564;DHT22;1796;52.388;13.096;2022-10-13T10:17:56;16.90;99.90
3564;DHT22;1796;52.388;13.096;2022-10-13T10:20:52;17.20;99.90
3564;DHT22;1796;52.388;13.096;2022-10-13T10:23:31;17.30;99.90
3564;DHT22;1796;52.388;13.096;2022-10-13T10:26:07;17.50;99.90
3564;DHT22;1796;52.388;13.096;2022-10-13T10:28:49;17.60;99.90
3564;DHT22;1796;52.388;13.096;2022-10-13T10:31:28;17.90;99.90
3564;DHT22;1796;52.388;13.096;2022-10-13T10:34:09;18.10;99.90
3564;DHT22;1796;52.388;13.096;2022-10-13T10:36:51;18.10;99.90
3564;DHT22;1796;52.388;13.096;2022-10-13T10:39:25;18.00;99.90
3564;DHT22;1796;52.388;13.096;2022-10-13T10:42:02;18.00;99.90
3564;DHT22;1796;52.388;13.096;2022-10-13T10:44:34;18.00;99.90
3564;DHT22;1796;52.388;13.096;2022-10-13T10:47:06;18.00;99.90
3564;DHT22;1796;52.388;13.096;2022-10-13T10:49:34;17.90;99.90
3564;DHT22;1796;52.388;13.096;2022-10-13T10:52:08;17.80;99.90
3564;DHT22;1796;52.388;13.096;2022-10-13T10:54:41;17.80;99.90
3564;DHT22;1796;52.388;13.096;2022-10-13T10:57:13;17.80;99.90
3564;DHT22;1796;52.388;13.096;2022-10-13T10:59:52;17.80;99.90
3564;DHT22;1796;52.388;13.096;2022-10-13T11:02:36;17.90;99.90
3564;DHT22;1796;52.388;13.096;2022-10-13T11:05:06;17.90;99.90
3564;DHT22;1796;52.388;13.096;2022-10-13T11:07:58;17.80;99.90
3564;DHT22;1796;52.388;13.096;2022-10-13T11:10:27;17.70;99.90
3564;DHT22;1796;52.388;13.096;2022-10-13T11:13:24;17.80;99.90
3564;DHT22;1796;52.388;13.096;2022-10-13T11:15:51;17.70;99.90
3564;DHT22;1796;52.388;13.096;2022-10-13T11:18:53;17.80;99.90
3564;DHT22;1796;52.388;13.096;2022-10-13T11:21:21;18.00;99.90
3564;DHT22;1796;52.388;13.096;2022-10-13T11:23:49;18.20;99.90
3564;DHT22;1796;52.388;13.096;2022-10-13T11:26:31;18.20;99.90
3564;DHT22;1796;52.388;13.096;2022-10-13T11:29:16;18.20;99.90
3564;DHT22;1796;52.388;13.096;2022-10-13T11:31:49;18.10;99.90
3564;DHT22;1796;52.388;13.096;2022-10-13T11:34:29;18.10;99.90
3564;DHT22;1796;52.388;13.096;2022-10-13T11:37:01;18.10;99.90
3564;DHT22;1796;52.388;13.096;2022-10-13T11:43:17;18.20;99.90
3564;DHT22;1796;52.388;13.096;2022-10-13T11:45:56;18.10;99.90
3564;DHT22;1796;52.388;13.096;2022-10-13T11:49:12;18.30;99.90
3564;DHT22;1796;52.388;13.096;2022-10-13T11:54:38;18.40;99.90
3564;DHT22;1796;52.388;13.096;2022-10-13T11:57:17;18.40;99.90
3564;DHT22;1796;52.388;13.096;2022-10-13T11:59:47;18.60;99.90
3564;DHT22;1796;52.388;13.096;2022-10-13T12:02:15;18.80;99.90
3564;DHT22;1796;52.388;13.096;2022-10-13T12:04:44;18.60;99.90
3564;DHT22;1796;52.388;13.096;2022-10-13T12:07:12;18.60;99.90
3564;DHT22;1796;52.388;13.096;2022-10-13T12:09:49;18.70;99.90
3564;DHT22;1796;52.388;13.096;2022-10-13T12:12:19;18.90;99.90
3564;DHT22;1796;52.388;13.096;2022-10-13T12:14:49;19.00;99.90
3564;DHT22;1796;52.388;13.096;2022-10-13T12:17:21;18.90;99.90
3564;DHT22;1796;52.388;13.096;2022-10-13T12:19:49;18.80;99.90
3564;DHT22;1796;52.388;13.096;2022-10-13T12:22:16;18.70;99.90
3564;DHT22;1796;52.388;13.096;2022-10-13T12:24:55;18.60;99.90
3564;DHT22;1796;52.388;13.096;2022-10-13T12:27:26;18.50;99.90
3564;DHT22;1796;52.388;13.096;2022-10-13T12:29:54;18.50;99.90
3564;DHT22;1796;52.388;13.096;2022-10-13T12:32:23;18.30;99.90
3564;DHT22;1796;52.388;13.096;2022-10-13T12:34:50;18.40;99.90
3564;DHT22;1796;52.388;13.096;2022-10-13T12:37:25;18.40;99.90
3564;DHT22;1796;52.388;13.096;2022-10-13T12:39:53;18.40;99.90
3564;DHT22;1796;52.388;13.096;2022-10-13T12:42:27;18.50;99.90
3564;DHT22;1796;52.388;13.096;2022-10-13T12:44:55;18.50;99.90
3564;DHT22;1796;52.388;13.096;2022-10-13T12:47:37;18.60;99.90
3564;DHT22;1796;52.388;13.096;2022-10-13T12:50:22;18.60;99.90
3564;DHT22;1796;52.388;13.096;2022-10-13T12:53:12;18.70;99.90
3564;DHT22;1796;52.388;13.096;2022-10-13T12:55:52;18.80;99.90
3564;DHT22;1796;52.388;13.096;2022-10-13T12:58:26;18.70;99.90
3564;DHT22;1796;52.388;13.096;2022-10-13T13:01:02;18.60;99.90
3564;DHT22;1796;52.388;13.096;2022-10-13T13:03:30;18.70;99.90
3564;DHT22;1796;52.388;13.096;2022-10-13T13:06:22;18.70;99.90
3564;DHT22;1796;52.388;13.096;2022-10-13T13:09:07;18.60;99.90
3564;DHT22;1796;52.388;13.096;2022-10-13T13:11:36;18.30;99.90
3564;DHT22;1796;52.388;13.096;2022-10-13T13:14:35;18.10;99.90
3564;DHT22;1796;52.388;13.096;2022-10-13T13:17:10;18.20;99.90
3564;DHT22;1796;52.388;13.096;2022-10-13T13:19:38;18.20;99.90
3564;DHT22;1796;52.388;13.096;2022-10-13T13:22:05;17.90;99.90
3564;DHT22;1796;52.388;13.096;2022-10-13T13:24:32;18.10;99.90
3564;DHT22;1796;52.388;13.096;2022-10-13T13:27:06;18.20;99.90
3564;DHT22;1796;52.388;13.096;2022-10-13T13:29:38;18.40;99.90
3564;DHT22;1796;52.388;13.096;2022-10-13T13:32:05;18.40;99.90
3564;DHT22;1796;52.388;13.096;2022-10-13T13:34:32;18.50;99.90
3564;DHT22;1796;52.388;13.096;2022-10-13T13:37:00;18.50;99.90
3564;DHT22;1796;52.388;13.096;2022-10-13T13:39:27;18.70;99.90
3564;DHT22;1796;52.388;13.096;2022-10-13T13:41:54;18.80;99.90
3564;DHT22;1796;52.388;13.096;2022-10-13T13:44:21;18.90;99.90
3564;DHT22;1796;52.388;13.096;2022-10-13T13:46:49;18.90;99.90
3564;DHT22;1796;52.388;13.096;2022-10-13T13:49:16;19.10;99.90
3564;DHT22;1796;52.388;13.096;2022-10-13T13:51:43;19.00;99.90
3564;DHT22;1796;52.388;13.096;2022-10-13T13:54:09;18.90;99.90
3564;DHT22;1796;52.388;13.096;2022-10-13T13:56:36;18.80;99.90
3564;DHT22;1796;52.388;13.096;2022-10-13T13:59:03;18.70;99.90
3564;DHT22;1796;52.388;13.096;2022-10-13T14:01:30;18.50;99.90
3564;DHT22;1796;52.388;13.096;2022-10-13T14:03:58;18.30;99.90
3564;DHT22;1796;52.388;13.096;2022-10-13T14:06:27;18.20;99.90
3564;DHT22;1796;52.388;13.096;2022-10-13T14:08:54;18.00;99.90
3564;DHT22;1796;52.388;13.096;2022-10-13T14:11:21;17.80;99.90
3564;DHT22;1796;52.388;13.096;2022-10-13T14:13:48;17.70;99.90
3564;DHT22;1796;52.388;13.096;2022-10-13T14:16:15;17.60;99.90
3564;DHT22;1796;52.388;13.096;2022-10-13T14:18:43;17.50;99.90
3564;DHT22;1796;52.388;13.096;2022-10-13T14:21:11;17.50;99.90
3564;DHT22;1796;52.388;13.096;2022-10-13T14:23:38;17.50;99.90
3564;DHT22;1796;52.388;13.096;2022-10-13T14:26:10;17.40;99.90
3564;DHT22;1796;52.388;13.096;2022-10-13T14:28:39;17.70;99.90
3564;DHT22;1796;52.388;13.096;2022-10-13T14:31:06;17.70;99.90
3564;DHT22;1796;52.388;13.096;2022-10-13T14:33:34;17.60;99.90
3564;DHT22;1796;52.388;13.096;2022-10-13T14:36:01;17.50;99.90
3564;DHT22;1796;52.388;13.096;2022-10-13T14:38:29;17.50;99.90
3564;DHT22;1796;52.388;13.096;2022-10-13T14:41:00;17.50;99.90
3564;DHT22;1796;52.388;13.096;2022-10-13T14:43:27;17.40;99.90
3564;DHT22;1796;52.388;13.096;2022-10-13T14:45:54;17.40;99.90
3564;DHT22;1796;52.388;13.096;2022-10-13T14:48:21;17.30;99.90
3564;DHT22;1796;52.388;13.096;2022-10-13T14:50:48;17.20;99.90
3564;DHT22;1796;52.388;13.096;2022-10-13T14:53:15;17.00;99.90
3564;DHT22;1796;52.388;13.096;2022-10-13T14:55:44;16.70;99.90
3564;DHT22;1796;52.388;13.096;2022-10-13T14:58:11;16.60;99.90
3564;DHT22;1796;52.388;13.096;2022-10-13T15:00:38;16.40;99.90
3564;DHT22;1796;52.388;13.096;2022-10-13T15:03:04;16.20;99.90
3564;DHT22;1796;52.388;13.096;2022-10-13T15:05:31;16.10;99.90
3564;DHT22;1796;52.388;13.096;2022-10-13T15:07:58;16.00;99.90
3564;DHT22;1796;52.388;13.096;2022-10-13T15:10:25;15.80;99.90
3564;DHT22;1796;52.388;13.096;2022-10-13T15:12:53;15.80;99.90
3564;DHT22;1796;52.388;13.096;2022-10-13T15:15:20;15.70;99.90
3564;DHT22;1796;52.388;13.096;2022-10-13T15:17:47;15.60;99.90
3564;DHT22;1796;52.388;13.096;2022-10-13T15:20:14;15.50;99.90
3564;DHT22;1796;52.388;13.096;2022-10-13T15:22:41;15.40;99.90
3564;DHT22;1796;52.388;13.096;2022-10-13T15:25:08;15.30;99.90
3564;DHT22;1796;52.388;13.096;2022-10-13T15:27:36;15.20;99.90
3564;DHT22;1796;52.388;13.096;2022-10-13T15:30:07;15.10;99.90
3564;DHT22;1796;52.388;13.096;2022-10-13T15:32:34;15.10;99.90
3564;DHT22;1796;52.388;13.096;2022-10-13T15:35:01;15.10;99.90
3564;DHT22;1796;52.388;13.096;2022-10-13T15:37:28;15.00;99.90
3564;DHT22;1796;52.388;13.096;2022-10-13T15:39:54;14.90;99.90
3564;DHT22;1796;52.388;13.096;2022-10-13T15:42:21;14.90;99.90
3564;DHT22;1796;52.388;13.096;2022-10-13T15:44:48;14.80;99.90
3564;DHT22;1796;52.388;13.096;2022-10-13T15:47:16;14.80;99.90
3564;DHT22;1796;52.388;13.096;2022-10-13T15:49:43;14.70;99.90
3564;DHT22;1796;52.388;13.096;2022-10-13T15:52:10;14.80;99.90
3564;DHT22;1796;52.388;13.096;2022-10-13T15:54:37;14.70;99.90
3564;DHT22;1796;52.388;13.096;2022-10-13T15:57:04;14.70;99.90
3564;DHT22;1796;52.388;13.096;2022-10-13T15:59:30;14.70;99.90
3564;DHT22;1796;52.388;13.096;2022-10-13T16:01:57;14.70;99.90
3564;DHT22;1796;52.388;13.096;2022-10-13T16:04:25;14.50;99.90
3564;DHT22;1796;52.388;13.096;2022-10-13T16:06:52;14.40;99.90
3564;DHT22;1796;52.388;13.096;2022-10-13T16:09:19;14.30;99.90
3564;DHT22;1796;52.388;13.096;2022-10-13T16:11:46;14.10;99.90
3564;DHT22;1796;52.388;13.096;2022-10-13T16:14:13;14.00;99.90
3564;DHT22;1796;52.388;13.096;2022-10-13T16:16:39;13.90;99.90
3564;DHT22;1796;52.388;13.096;2022-10-13T16:19:06;13.80;99.90